sensor_id;sensor_type;location;lat;lon;timestamp;pressure;altitude;pressure_sealevel;temperature;humidity
62948;BME280;51940;52.126;-0.994;2022-09-21T00:01:07;101608.54;;;14.23;69.24
62948;BME280;51940;52.126;-0.994;2022-09-21T00:03:34;101605.96;;;14.25;69.17
62948;BME280;51940;52.126;-0.994;2022-09-21T00:06:04;101605.42;;;14.26;69.21
62948;BME280;51940;52.126;-0.994;2022-09-21T00:08:30;101607.91;;;14.27;69.14
62948;BME280;51940;52.126;-0.994;2022-09-21T00:10:56;101606.14;;;14.26;69.21
62948;BME280;51940;52.126;-0.994;2022-09-21T00:13:21;101612.09;;;14.24;69.21
62948;BME280;51940;52.126;-0.994;2022-09-21T00:15:48;101610.33;;;14.23;69.15
62948;BME280;51940;52.126;-0.994;2022-09-21T00:18:13;101610.86;;;14.24;69.17
62948;BME280;51940;52.126;-0.994;2022-09-21T00:20:40;101606.01;;;14.24;69.06
62948;BME280;51940;52.126;-0.994;2022-09-21T00:23:09;101605.86;;;14.22;69.21
62948;BME280;51940;52.126;-0.994;2022-09-21T00:25:34;101604.45;;;14.21;69.32
62948;BME280;51940;52.126;-0.994;2022-09-21T00:28:00;101602.86;;;14.20;69.40
62948;BME280;51940;52.126;-0.994;2022-09-21T00:30:25;101604.86;;;14.19;69.44
62948;BME280;51940;52.126;-0.994;2022-09-21T00:32:52;101603.08;;;14.18;69.52
62948;BME280;51940;52.126;-0.994;2022-09-21T00:35:17;101605.30;;;14.14;69.59
62948;BME280;51940;52.126;-0.994;2022-09-21T00:37:43;101601.79;;;14.11;69.65
62948;BME280;51940;52.126;-0.994;2022-09-21T00:40:09;101603.76;;;14.10;69.87
62948;BME280;51940;52.126;-0.994;2022-09-21T00:42:34;101609.51;;;14.09;69.86
62948;BME280;51940;52.126;-0.994;2022-09-21T00:45:00;101603.61;;;14.08;70.05
62948;BME280;51940;52.126;-0.994;2022-09-21T00:47:35;101604.70;;;14.07;70.00
62948;BME280;51940;52.126;-0.994;2022-09-21T00:50:05;101604.88;;;14.07;70.24
62948;BME280;51940;52.126;-0.994;2022-09-21T00:52:34;101604.31;;;14.09;70.05
62948;BME280;51940;52.126;-0.994;2022-09-21T00:55:12;101601.98;;;14.10;70.00
62948;BME280;51940;52.126;-0.994;2022-09-21T00:57:42;101604.09;;;14.12;69.94
62948;BME280;51940;52.126;-0.994;2022-09-21T01:00:08;101604.83;;;14.11;69.88
62948;BME280;51940;52.126;-0.994;2022-09-21T01:02:37;101603.36;;;14.13;69.90
62948;BME280;51940;52.126;-0.994;2022-09-21T01:05:06;101597.80;;;14.13;69.97
62948;BME280;51940;52.126;-0.994;2022-09-21T01:07:35;101597.62;;;14.13;69.88
62948;BME280;51940;52.126;-0.994;2022-09-21T01:10:11;101596.19;;;14.13;69.79
62948;BME280;51940;52.126;-0.994;2022-09-21T01:15:18;101597.13;;;14.09;70.01
62948;BME280;51940;52.126;-0.994;2022-09-21T01:31:07;101595.73;;;13.98;70.63
62948;BME280;51940;52.126;-0.994;2022-09-21T01:33:43;101595.35;;;13.99;70.56
62948;BME280;51940;52.126;-0.994;2022-09-21T01:36:15;101592.84;;;13.99;70.40
62948;BME280;51940;52.126;-0.994;2022-09-21T01:38:48;101594.09;;;13.99;70.16
62948;BME280;51940;52.126;-0.994;2022-09-21T01:41:17;101594.98;;;14.00;69.89
62948;BME280;51940;52.126;-0.994;2022-09-21T01:43:47;101593.36;;;14.00;69.42
62948;BME280;51940;52.126;-0.994;2022-09-21T01:46:17;101591.44;;;13.98;69.41
62948;BME280;51940;52.126;-0.994;2022-09-21T01:48:51;101591.32;;;13.95;69.66
62948;BME280;51940;52.126;-0.994;2022-09-21T01:51:19;101587.43;;;13.92;69.80
62948;BME280;51940;52.126;-0.994;2022-09-21T01:54:23;101591.09;;;13.88;70.36
62948;BME280;51940;52.126;-0.994;2022-09-21T01:57:11;101584.15;;;13.85;70.53
62948;BME280;51940;52.126;-0.994;2022-09-21T01:59:49;101585.59;;;13.85;70.49
62948;BME280;51940;52.126;-0.994;2022-09-21T02:02:54;101585.59;;;13.85;70.52
62948;BME280;51940;52.126;-0.994;2022-09-21T02:05:24;101583.30;;;13.82;70.71
62948;BME280;51940;52.126;-0.994;2022-09-21T02:07:51;101585.90;;;13.78;70.90
62948;BME280;51940;52.126;-0.994;2022-09-21T02:10:27;101585.78;;;13.75;71.22
62948;BME280;51940;52.126;-0.994;2022-09-21T02:12:57;101584.75;;;13.72;71.64
62948;BME280;51940;52.126;-0.994;2022-09-21T02:15:36;101585.87;;;13.70;71.76
62948;BME280;51940;52.126;-0.994;2022-09-21T02:18:18;101585.69;;;13.70;71.78
62948;BME280;51940;52.126;-0.994;2022-09-21T02:20:54;101585.53;;;13.68;71.89
62948;BME280;51940;52.126;-0.994;2022-09-21T02:23:25;101586.06;;;13.69;71.81
62948;BME280;51940;52.126;-0.994;2022-09-21T02:28:40;101586.30;;;13.74;71.66
62948;BME280;51940;52.126;-0.994;2022-09-21T02:31:14;101583.11;;;13.73;71.46
62948;BME280;51940;52.126;-0.994;2022-09-21T02:33:57;101583.67;;;13.72;71.45
62948;BME280;51940;52.126;-0.994;2022-09-21T02:39:03;101582.04;;;13.72;71.14
62948;BME280;51940;52.126;-0.994;2022-09-21T02:41:44;101577.27;;;13.70;71.28
62948;BME280;51940;52.126;-0.994;2022-09-21T02:44:15;101576.70;;;13.71;71.22
62948;BME280;51940;52.126;-0.994;2022-09-21T02:46:49;101572.38;;;13.72;70.99
62948;BME280;51940;52.126;-0.994;2022-09-21T02:49:23;101577.89;;;13.74;70.81
62948;BME280;51940;52.126;-0.994;2022-09-21T02:51:53;101575.20;;;13.74;70.77
62948;BME280;51940;52.126;-0.994;2022-09-21T02:54:25;101573.22;;;13.74;70.82
62948;BME280;51940;52.126;-0.994;2022-09-21T02:56:52;101569.85;;;13.72;70.86
62948;BME280;51940;52.126;-0.994;2022-09-21T02:59:18;101568.61;;;13.72;70.91
62948;BME280;51940;52.126;-0.994;2022-09-21T03:01:48;101563.42;;;13.72;70.89
62948;BME280;51940;52.126;-0.994;2022-09-21T03:04:14;101562.19;;;13.70;70.91
62948;BME280;51940;52.126;-0.994;2022-09-21T03:06:40;101558.84;;;13.67;71.03
62948;BME280;51940;52.126;-0.994;2022-09-21T03:09:06;101560.46;;;13.66;71.12
62948;BME280;51940;52.126;-0.994;2022-09-21T03:11:31;101559.43;;;13.63;71.13
62948;BME280;51940;52.126;-0.994;2022-09-21T03:13:57;101560.23;;;13.59;71.36
62948;BME280;51940;52.126;-0.994;2022-09-21T03:16:24;101553.44;;;13.58;71.54
62948;BME280;51940;52.126;-0.994;2022-09-21T03:18:50;101552.04;;;13.56;71.65
62948;BME280;51940;52.126;-0.994;2022-09-21T03:21:16;101550.96;;;13.56;71.74
62948;BME280;51940;52.126;-0.994;2022-09-21T03:23:41;101545.91;;;13.58;71.68
62948;BME280;51940;52.126;-0.994;2022-09-21T03:26:07;101545.89;;;13.60;71.60
62948;BME280;51940;52.126;-0.994;2022-09-21T03:28:33;101546.95;;;13.61;71.57
62948;BME280;51940;52.126;-0.994;2022-09-21T03:30:58;101549.83;;;13.61;71.65
62948;BME280;51940;52.126;-0.994;2022-09-21T03:33:24;101551.47;;;13.58;71.81
62948;BME280;51940;52.126;-0.994;2022-09-21T03:35:50;101552.05;;;13.55;71.97
62948;BME280;51940;52.126;-0.994;2022-09-21T03:38:17;101552.44;;;13.54;72.08
62948;BME280;51940;52.126;-0.994;2022-09-21T03:40:49;101547.41;;;13.54;72.00
62948;BME280;51940;52.126;-0.994;2022-09-21T03:43:16;101546.49;;;13.55;72.03
62948;BME280;51940;52.126;-0.994;2022-09-21T03:45:42;101543.14;;;13.53;72.07
62948;BME280;51940;52.126;-0.994;2022-09-21T03:48:09;101540.02;;;13.47;72.23
62948;BME280;51940;52.126;-0.994;2022-09-21T03:50:35;101536.52;;;13.42;72.43
62948;BME280;51940;52.126;-0.994;2022-09-21T03:53:01;101530.84;;;13.39;72.72
62948;BME280;51940;52.126;-0.994;2022-09-21T03:55:26;101526.34;;;13.39;72.75
62948;BME280;51940;52.126;-0.994;2022-09-21T03:57:52;101521.31;;;13.40;72.88
62948;BME280;51940;52.126;-0.994;2022-09-21T04:00:18;101520.25;;;13.39;72.92
62948;BME280;51940;52.126;-0.994;2022-09-21T04:02:44;101521.37;;;13.37;72.98
62948;BME280;51940;52.126;-0.994;2022-09-21T04:05:12;101517.64;;;13.36;73.06
62948;BME280;51940;52.126;-0.994;2022-09-21T04:07:43;101516.05;;;13.34;73.09
62948;BME280;51940;52.126;-0.994;2022-09-21T04:10:11;101513.17;;;13.35;73.12
62948;BME280;51940;52.126;-0.994;2022-09-21T04:12:37;101512.25;;;13.36;73.18
62948;BME280;51940;52.126;-0.994;2022-09-21T04:15:04;101509.27;;;13.33;73.18
62948;BME280;51940;52.126;-0.994;2022-09-21T04:17:32;101518.23;;;13.32;73.39
62948;BME280;51940;52.126;-0.994;2022-09-21T04:19:58;101519.02;;;13.28;73.31
62948;BME280;51940;52.126;-0.994;2022-09-21T04:22:23;101514.39;;;13.27;73.50
62948;BME280;51940;52.126;-0.994;2022-09-21T04:24:49;101510.97;;;13.28;73.44
62948;BME280;51940;52.126;-0.994;2022-09-21T04:27:14;101509.37;;;13.27;73.43
62948;BME280;51940;52.126;-0.994;2022-09-21T04:29:40;101512.63;;;13.24;73.52
62948;BME280;51940;52.126;-0.994;2022-09-21T04:32:06;101516.04;;;13.25;73.58
62948;BME280;51940;52.126;-0.994;2022-09-21T04:34:31;101517.63;;;13.25;73.51
62948;BME280;51940;52.126;-0.994;2022-09-21T04:36:57;101519.80;;;13.25;73.51
62948;BME280;51940;52.126;-0.994;2022-09-21T04:39:24;101518.54;;;13.25;73.37
62948;BME280;51940;52.126;-0.994;2022-09-21T04:41:50;101519.80;;;13.23;73.55
62948;BME280;51940;52.126;-0.994;2022-09-21T04:44:16;101516.44;;;13.22;73.57
62948;BME280;51940;52.126;-0.994;2022-09-21T04:46:45;101519.88;;;13.20;73.69
62948;BME280;51940;52.126;-0.994;2022-09-21T04:49:10;101522.55;;;13.20;73.80
62948;BME280;51940;52.126;-0.994;2022-09-21T04:51:36;101521.28;;;13.21;73.79
62948;BME280;51940;52.126;-0.994;2022-09-21T04:54:02;101521.83;;;13.21;73.84
62948;BME280;51940;52.126;-0.994;2022-09-21T04:56:28;101523.61;;;13.21;73.89
62948;BME280;51940;52.126;-0.994;2022-09-21T04:58:53;101522.89;;;13.21;73.82
62948;BME280;51940;52.126;-0.994;2022-09-21T05:01:19;101520.77;;;13.19;73.89
62948;BME280;51940;52.126;-0.994;2022-09-21T05:03:44;101524.73;;;13.17;73.97
62948;BME280;51940;52.126;-0.994;2022-09-21T05:06:10;101521.89;;;13.15;74.07
62948;BME280;51940;52.126;-0.994;2022-09-21T05:08:38;101525.14;;;13.14;74.15
62948;BME280;51940;52.126;-0.994;2022-09-21T05:11:21;101526.25;;;13.12;74.28
62948;BME280;51940;52.126;-0.994;2022-09-21T05:13:48;101527.02;;;13.09;74.32
62948;BME280;51940;52.126;-0.994;2022-09-21T05:16:14;101526.13;;;13.08;74.41
62948;BME280;51940;52.126;-0.994;2022-09-21T05:18:40;101529.48;;;13.12;74.18
62948;BME280;51940;52.126;-0.994;2022-09-21T05:21:05;101527.29;;;13.14;74.01
62948;BME280;51940;52.126;-0.994;2022-09-21T05:23:32;101525.65;;;13.15;73.96
62948;BME280;51940;52.126;-0.994;2022-09-21T05:25:58;101525.67;;;13.14;74.03
62948;BME280;51940;52.126;-0.994;2022-09-21T05:28:24;101526.92;;;13.14;74.10
62948;BME280;51940;52.126;-0.994;2022-09-21T05:30:59;101526.54;;;13.15;74.00
62948;BME280;51940;52.126;-0.994;2022-09-21T05:33:28;101526.59;;;13.13;73.85
62948;BME280;51940;52.126;-0.994;2022-09-21T05:36:17;101532.71;;;13.11;73.99
62948;BME280;51940;52.126;-0.994;2022-09-21T05:38:47;101533.23;;;13.11;74.11
62948;BME280;51940;52.126;-0.994;2022-09-21T05:41:13;101532.42;;;13.07;74.19
62948;BME280;51940;52.126;-0.994;2022-09-21T05:43:39;101534.77;;;13.05;74.30
62948;BME280;51940;52.126;-0.994;2022-09-21T05:46:19;101537.79;;;13.07;74.43
62948;BME280;51940;52.126;-0.994;2022-09-21T05:48:59;101539.21;;;13.08;74.37
62948;BME280;51940;52.126;-0.994;2022-09-21T05:51:47;101544.41;;;13.07;74.50
62948;BME280;51940;52.126;-0.994;2022-09-21T05:56:53;101546.20;;;13.07;74.53
62948;BME280;51940;52.126;-0.994;2022-09-21T06:02:40;101545.30;;;13.09;74.39
62948;BME280;51940;52.126;-0.994;2022-09-21T06:05:12;101545.62;;;13.11;74.45
62948;BME280;51940;52.126;-0.994;2022-09-21T06:07:39;101543.98;;;13.11;74.53
62948;BME280;51940;52.126;-0.994;2022-09-21T06:10:06;101546.85;;;13.12;74.46
62948;BME280;51940;52.126;-0.994;2022-09-21T06:12:32;101550.27;;;13.11;74.45
62948;BME280;51940;52.126;-0.994;2022-09-21T06:14:57;101551.50;;;13.12;74.58
62948;BME280;51940;52.126;-0.994;2022-09-21T06:17:22;101551.27;;;13.14;74.67
62948;BME280;51940;52.126;-0.994;2022-09-21T06:19:51;101550.89;;;13.17;74.54
62948;BME280;51940;52.126;-0.994;2022-09-21T06:22:17;101552.66;;;13.19;74.40
62948;BME280;51940;52.126;-0.994;2022-09-21T06:24:42;101554.28;;;13.20;74.38
62948;BME280;51940;52.126;-0.994;2022-09-21T06:27:08;101557.98;;;13.22;74.35
62948;BME280;51940;52.126;-0.994;2022-09-21T06:29:33;101557.79;;;13.23;74.29
62948;BME280;51940;52.126;-0.994;2022-09-21T06:32:01;101561.38;;;13.23;74.43
62948;BME280;51940;52.126;-0.994;2022-09-21T06:34:26;101557.44;;;13.23;74.37
62948;BME280;51940;52.126;-0.994;2022-09-21T06:36:51;101555.64;;;13.24;74.34
62948;BME280;51940;52.126;-0.994;2022-09-21T06:39:17;101558.45;;;13.28;74.34
62948;BME280;51940;52.126;-0.994;2022-09-21T06:41:43;101556.64;;;13.29;74.35
62948;BME280;51940;52.126;-0.994;2022-09-21T06:44:08;101559.46;;;13.31;74.22
62948;BME280;51940;52.126;-0.994;2022-09-21T06:46:33;101558.39;;;13.30;74.20
62948;BME280;51940;52.126;-0.994;2022-09-21T06:48:59;101557.83;;;13.33;74.20
62948;BME280;51940;52.126;-0.994;2022-09-21T06:51:24;101562.56;;;13.38;73.98
62948;BME280;51940;52.126;-0.994;2022-09-21T06:53:54;101561.77;;;13.43;73.76
62948;BME280;51940;52.126;-0.994;2022-09-21T06:56:19;101565.65;;;13.46;73.70
62948;BME280;51940;52.126;-0.994;2022-09-21T06:58:45;101562.37;;;13.49;73.61
62948;BME280;51940;52.126;-0.994;2022-09-21T07:01:12;101565.87;;;13.54;73.34
62948;BME280;51940;52.126;-0.994;2022-09-21T07:03:39;101562.56;;;13.60;73.25
62948;BME280;51940;52.126;-0.994;2022-09-21T07:06:05;101561.95;;;13.63;73.12
62948;BME280;51940;52.126;-0.994;2022-09-21T07:08:31;101562.24;;;13.68;73.00
62948;BME280;51940;52.126;-0.994;2022-09-21T07:10:58;101558.23;;;13.71;72.93
62948;BME280;51940;52.126;-0.994;2022-09-21T07:13:27;101561.02;;;13.75;72.94
62948;BME280;51940;52.126;-0.994;2022-09-21T07:15:53;101557.92;;;13.78;72.90
62948;BME280;51940;52.126;-0.994;2022-09-21T07:18:20;101557.50;;;13.80;72.82
62948;BME280;51940;52.126;-0.994;2022-09-21T07:20:47;101558.13;;;13.86;72.89
62948;BME280;51940;52.126;-0.994;2022-09-21T07:23:18;101555.11;;;13.94;72.83
62948;BME280;51940;52.126;-0.994;2022-09-21T07:25:46;101555.88;;;14.00;72.84
62948;BME280;51940;52.126;-0.994;2022-09-21T07:28:17;101557.05;;;14.05;72.62
62948;BME280;51940;52.126;-0.994;2022-09-21T07:30:42;101553.73;;;14.09;72.49
62948;BME280;51940;52.126;-0.994;2022-09-21T07:33:08;101559.50;;;14.17;72.53
62948;BME280;51940;52.126;-0.994;2022-09-21T07:35:34;101556.80;;;14.26;72.20
62948;BME280;51940;52.126;-0.994;2022-09-21T07:38:01;101555.89;;;14.34;71.96
62948;BME280;51940;52.126;-0.994;2022-09-21T07:40:27;101554.65;;;14.43;71.89
62948;BME280;51940;52.126;-0.994;2022-09-21T07:42:57;101554.49;;;14.51;71.64
62948;BME280;51940;52.126;-0.994;2022-09-21T07:45:23;101556.33;;;14.57;71.08
62948;BME280;51940;52.126;-0.994;2022-09-21T07:47:49;101551.89;;;14.64;70.96
62948;BME280;51940;52.126;-0.994;2022-09-21T07:50:21;101552.95;;;14.72;70.67
62948;BME280;51940;52.126;-0.994;2022-09-21T07:52:48;101555.83;;;14.80;70.51
62948;BME280;51940;52.126;-0.994;2022-09-21T07:55:14;101552.45;;;14.86;70.27
62948;BME280;51940;52.126;-0.994;2022-09-21T07:57:40;101556.06;;;14.93;70.29
62948;BME280;51940;52.126;-0.994;2022-09-21T08:00:23;101554.98;;;15.01;70.00
62948;BME280;51940;52.126;-0.994;2022-09-21T08:02:49;101554.14;;;15.06;69.88
62948;BME280;51940;52.126;-0.994;2022-09-21T08:05:15;101553.79;;;15.13;69.52
62948;BME280;51940;52.126;-0.994;2022-09-21T08:07:41;101551.44;;;15.21;69.50
62948;BME280;51940;52.126;-0.994;2022-09-21T08:10:08;101548.70;;;15.30;69.36
62948;BME280;51940;52.126;-0.994;2022-09-21T08:12:34;101552.80;;;15.38;69.17
62948;BME280;51940;52.126;-0.994;2022-09-21T08:14:59;101552.39;;;15.47;69.03
62948;BME280;51940;52.126;-0.994;2022-09-21T08:17:24;101552.67;;;15.57;68.80
62948;BME280;51940;52.126;-0.994;2022-09-21T08:19:50;101551.44;;;15.64;68.70
62948;BME280;51940;52.126;-0.994;2022-09-21T08:22:15;101552.67;;;15.72;68.72
62948;BME280;51940;52.126;-0.994;2022-09-21T08:24:41;101551.66;;;15.83;68.30
62948;BME280;51940;52.126;-0.994;2022-09-21T08:27:08;101554.63;;;15.92;67.93
62948;BME280;51940;52.126;-0.994;2022-09-21T08:29:34;101553.19;;;15.99;67.94
62948;BME280;51940;52.126;-0.994;2022-09-21T08:32:02;101555.66;;;16.07;67.75
62948;BME280;51940;52.126;-0.994;2022-09-21T08:34:27;101556.70;;;16.15;67.50
62948;BME280;51940;52.126;-0.994;2022-09-21T08:36:53;101551.98;;;16.22;67.33
62948;BME280;51940;52.126;-0.994;2022-09-21T08:39:19;101554.37;;;16.27;66.84
62948;BME280;51940;52.126;-0.994;2022-09-21T08:41:54;101558.23;;;16.30;66.19
62948;BME280;51940;52.126;-0.994;2022-09-21T08:44:52;101557.10;;;16.31;65.76
62948;BME280;51940;52.126;-0.994;2022-09-21T08:47:34;101558.05;;;16.30;65.73
62948;BME280;51940;52.126;-0.994;2022-09-21T08:50:05;101558.55;;;16.32;65.63
62948;BME280;51940;52.126;-0.994;2022-09-21T08:52:37;101561.39;;;16.33;65.57
62948;BME280;51940;52.126;-0.994;2022-09-21T08:55:11;101556.16;;;16.40;65.50
62948;BME280;51940;52.126;-0.994;2022-09-21T08:57:40;101559.72;;;16.47;65.20
62948;BME280;51940;52.126;-0.994;2022-09-21T09:00:12;101555.58;;;16.53;65.20
62948;BME280;51940;52.126;-0.994;2022-09-21T09:03:03;101555.89;;;16.60;64.90
62948;BME280;51940;52.126;-0.994;2022-09-21T09:10:36;101553.80;;;16.88;64.52
62948;BME280;51940;52.126;-0.994;2022-09-21T09:18:12;101548.43;;;17.26;63.54
62948;BME280;51940;52.126;-0.994;2022-09-21T09:20:46;101550.80;;;17.41;63.30
62948;BME280;51940;52.126;-0.994;2022-09-21T09:23:31;101550.33;;;17.55;62.68
62948;BME280;51940;52.126;-0.994;2022-09-21T09:26:08;101549.08;;;17.70;62.57
62948;BME280;51940;52.126;-0.994;2022-09-21T09:28:43;101553.29;;;17.84;61.94
62948;BME280;51940;52.126;-0.994;2022-09-21T09:31:18;101550.09;;;17.93;61.11
62948;BME280;51940;52.126;-0.994;2022-09-21T09:33:56;101550.98;;;17.98;61.26
62948;BME280;51940;52.126;-0.994;2022-09-21T09:36:26;101550.68;;;18.12;61.07
62948;BME280;51940;52.126;-0.994;2022-09-21T09:39:00;101547.83;;;18.25;60.36
62948;BME280;51940;52.126;-0.994;2022-09-21T09:41:31;101549.98;;;18.40;59.98
62948;BME280;51940;52.126;-0.994;2022-09-21T09:52:27;101552.66;;;18.97;58.36
62948;BME280;51940;52.126;-0.994;2022-09-21T09:54:53;101554.54;;;19.08;57.06
62948;BME280;51940;52.126;-0.994;2022-09-21T09:57:32;101550.03;;;19.17;57.08
62948;BME280;51940;52.126;-0.994;2022-09-21T10:00:04;101549.59;;;19.27;55.85
62948;BME280;51940;52.126;-0.994;2022-09-21T10:02:45;101550.70;;;19.39;55.37
62948;BME280;51940;52.126;-0.994;2022-09-21T10:05:19;101552.13;;;19.48;53.71
62948;BME280;51940;52.126;-0.994;2022-09-21T10:07:45;101549.09;;;19.52;51.77
62948;BME280;51940;52.126;-0.994;2022-09-21T10:16:00;101546.71;;;19.66;50.13
62948;BME280;51940;52.126;-0.994;2022-09-21T10:18:36;101541.16;;;19.72;49.99
62948;BME280;51940;52.126;-0.994;2022-09-21T10:21:08;101541.63;;;19.83;49.99
62948;BME280;51940;52.126;-0.994;2022-09-21T10:23:51;101545.60;;;19.91;48.48
62948;BME280;51940;52.126;-0.994;2022-09-21T10:26:18;101542.87;;;19.99;48.74
62948;BME280;51940;52.126;-0.994;2022-09-21T10:28:55;101535.83;;;20.11;48.24
62948;BME280;51940;52.126;-0.994;2022-09-21T10:31:22;101536.02;;;20.22;47.60
62948;BME280;51940;52.126;-0.994;2022-09-21T10:34:13;101534.69;;;20.36;47.18
62948;BME280;51940;52.126;-0.994;2022-09-21T10:36:39;101528.48;;;20.45;46.06
62948;BME280;51940;52.126;-0.994;2022-09-21T10:41:55;101534.59;;;20.69;45.97
62948;BME280;51940;52.126;-0.994;2022-09-21T10:44:25;101533.48;;;20.69;44.55
62948;BME280;51940;52.126;-0.994;2022-09-21T10:46:52;101533.23;;;20.63;44.79
62948;BME280;51940;52.126;-0.994;2022-09-21T10:49:28;101534.15;;;20.59;45.17
62948;BME280;51940;52.126;-0.994;2022-09-21T10:51:56;101533.83;;;20.54;44.66
62948;BME280;51940;52.126;-0.994;2022-09-21T10:54:26;101528.65;;;20.41;43.68
62948;BME280;51940;52.126;-0.994;2022-09-21T10:56:55;101531.28;;;20.27;44.20
62948;BME280;51940;52.126;-0.994;2022-09-21T10:59:25;101531.02;;;20.21;44.61
62948;BME280;51940;52.126;-0.994;2022-09-21T11:01:54;101528.56;;;20.15;44.05
62948;BME280;51940;52.126;-0.994;2022-09-21T11:04:35;101528.80;;;20.02;43.99
62948;BME280;51940;52.126;-0.994;2022-09-21T11:07:34;101526.73;;;19.92;44.73
62948;BME280;51940;52.126;-0.994;2022-09-21T11:10:29;101525.05;;;19.81;45.09
62948;BME280;51940;52.126;-0.994;2022-09-21T11:15:54;101517.67;;;19.63;45.86
62948;BME280;51940;52.126;-0.994;2022-09-21T11:18:50;101520.45;;;19.66;44.40
62948;BME280;51940;52.126;-0.994;2022-09-21T11:27:04;101510.92;;;19.81;44.44
62948;BME280;51940;52.126;-0.994;2022-09-21T11:38:03;101501.37;;;20.12;43.35
62948;BME280;51940;52.126;-0.994;2022-09-21T11:51:34;101490.11;;;20.55;43.65
62948;BME280;51940;52.126;-0.994;2022-09-21T12:05:23;101473.11;;;21.02;41.51
62948;BME280;51940;52.126;-0.994;2022-09-21T12:18:41;101465.48;;;21.06;41.80
62948;BME280;51940;52.126;-0.994;2022-09-21T12:21:17;101466.19;;;21.06;41.92
62948;BME280;51940;52.126;-0.994;2022-09-21T12:23:50;101466.09;;;21.01;41.85
62948;BME280;51940;52.126;-0.994;2022-09-21T12:26:21;101460.76;;;20.96;41.95
62948;BME280;51940;52.126;-0.994;2022-09-21T12:28:58;101465.89;;;20.95;41.99
62948;BME280;51940;52.126;-0.994;2022-09-21T12:31:34;101462.22;;;21.02;41.87
62948;BME280;51940;52.126;-0.994;2022-09-21T12:34:10;101460.48;;;21.08;42.04
62948;BME280;51940;52.126;-0.994;2022-09-21T12:37:01;101461.79;;;21.07;41.70
62948;BME280;51940;52.126;-0.994;2022-09-21T12:39:33;101462.24;;;21.02;41.98
62948;BME280;51940;52.126;-0.994;2022-09-21T12:44:54;101460.93;;;20.77;41.88
62948;BME280;51940;52.126;-0.994;2022-09-21T12:47:27;101453.40;;;20.68;42.20
62948;BME280;51940;52.126;-0.994;2022-09-21T12:50:19;101453.41;;;20.68;42.43
62948;BME280;51940;52.126;-0.994;2022-09-21T12:52:45;101456.44;;;20.69;42.34
62948;BME280;51940;52.126;-0.994;2022-09-21T12:55:28;101451.95;;;20.68;42.79
62948;BME280;51940;52.126;-0.994;2022-09-21T13:00:32;101449.00;;;20.77;43.39
62948;BME280;51940;52.126;-0.994;2022-09-21T13:03:20;101448.69;;;20.79;43.14
62948;BME280;51940;52.126;-0.994;2022-09-21T13:08:39;101438.70;;;20.79;43.00
62948;BME280;51940;52.126;-0.994;2022-09-21T13:11:08;101435.84;;;20.75;42.79
62948;BME280;51940;52.126;-0.994;2022-09-21T13:13:56;101433.89;;;20.70;42.77
62948;BME280;51940;52.126;-0.994;2022-09-21T13:16:27;101429.27;;;20.69;42.86
62948;BME280;51940;52.126;-0.994;2022-09-21T13:18:59;101428.88;;;20.65;43.05
62948;BME280;51940;52.126;-0.994;2022-09-21T13:21:31;101424.00;;;20.65;43.26
62948;BME280;51940;52.126;-0.994;2022-09-21T13:23:58;101420.16;;;20.70;43.16
62948;BME280;51940;52.126;-0.994;2022-09-21T13:29:34;101414.44;;;20.75;43.06
62948;BME280;51940;52.126;-0.994;2022-09-21T13:34:40;101408.89;;;20.77;42.64
62948;BME280;51940;52.126;-0.994;2022-09-21T13:45:05;101404.30;;;20.86;43.08
62948;BME280;51940;52.126;-0.994;2022-09-21T13:47:51;101403.27;;;20.92;42.83
62948;BME280;51940;52.126;-0.994;2022-09-21T13:50:38;101399.81;;;20.96;42.93
62948;BME280;51940;52.126;-0.994;2022-09-21T13:53:22;101403.91;;;21.04;42.89
62948;BME280;51940;52.126;-0.994;2022-09-21T13:55:51;101397.58;;;21.07;43.04
62948;BME280;51940;52.126;-0.994;2022-09-21T13:58:45;101398.99;;;21.11;42.88
62948;BME280;51940;52.126;-0.994;2022-09-21T14:01:20;101394.05;;;21.12;42.53
62948;BME280;51940;52.126;-0.994;2022-09-21T14:03:57;101393.94;;;21.10;42.77
62948;BME280;51940;52.126;-0.994;2022-09-21T14:06:27;101389.02;;;21.11;42.54
62948;BME280;51940;52.126;-0.994;2022-09-21T14:09:00;101388.23;;;21.12;42.63
62948;BME280;51940;52.126;-0.994;2022-09-21T14:14:20;101379.98;;;21.14;42.18
62948;BME280;51940;52.126;-0.994;2022-09-21T14:16:51;101378.34;;;21.17;42.40
62948;BME280;51940;52.126;-0.994;2022-09-21T14:27:31;101367.38;;;21.23;42.11
62948;BME280;51940;52.126;-0.994;2022-09-21T14:32:48;101362.05;;;21.27;42.05
62948;BME280;51940;52.126;-0.994;2022-09-21T14:35:17;101355.17;;;21.27;41.96
62948;BME280;51940;52.126;-0.994;2022-09-21T14:37:49;101352.90;;;21.25;42.13
62948;BME280;51940;52.126;-0.994;2022-09-21T14:42:42;101355.20;;;21.16;42.36
62948;BME280;51940;52.126;-0.994;2022-09-21T14:45:13;101354.23;;;21.10;42.43
62948;BME280;51940;52.126;-0.994;2022-09-21T14:47:48;101346.05;;;21.04;42.51
62948;BME280;51940;52.126;-0.994;2022-09-21T14:50:38;101344.75;;;21.01;42.77
62948;BME280;51940;52.126;-0.994;2022-09-21T14:53:52;101343.93;;;20.96;42.54
62948;BME280;51940;52.126;-0.994;2022-09-21T15:00:03;101339.74;;;20.89;42.71
62948;BME280;51940;52.126;-0.994;2022-09-21T15:02:38;101333.36;;;20.86;42.76
62948;BME280;51940;52.126;-0.994;2022-09-21T15:11:13;101329.19;;;20.76;42.92
62948;BME280;51940;52.126;-0.994;2022-09-21T15:16:22;101323.98;;;20.68;43.34
62948;BME280;51940;52.126;-0.994;2022-09-21T15:18:58;101323.93;;;20.65;43.12
62948;BME280;51940;52.126;-0.994;2022-09-21T15:21:28;101318.60;;;20.59;43.20
62948;BME280;51940;52.126;-0.994;2022-09-21T15:23:54;101320.90;;;20.50;43.76
62948;BME280;51940;52.126;-0.994;2022-09-21T15:26:27;101314.88;;;20.43;43.72
62948;BME280;51940;52.126;-0.994;2022-09-21T15:28:59;101310.31;;;20.37;43.75
62948;BME280;51940;52.126;-0.994;2022-09-21T15:31:34;101313.27;;;20.32;44.09
62948;BME280;51940;52.126;-0.994;2022-09-21T15:34:03;101311.35;;;20.27;43.90